Hawaii METAR Reports

 

PHOG - Kahului, Hawaii, USA
Distance from station: WNW 8mi, 13km
Updated: Sat, 21-Oct-2017 1:54pm HST
Partly Cloudy
Partly Cloudy
 Wind from NE
Wind: NE 20 mph , 31 km/h, Gust: 30 mph , 48 km/h
Temperature: 88°F , 31°C
Heat Index: 93°F , 34°C
Dew Point: 70°F , 21°C
Humidity: 55%
Barometer: 29.95 inHg , 1014.2 hPa
Clouds: Partly Cloudy
Visibility: 10 miles , 16 km
Cloud details: Few Clouds 2500 ft
Partly Cloudy 5000 ft
2017/10/21 23:54 PHOG 212354Z 05017G26KT 10SM FEW025 SCT050 31/21 A2995 RMK AO2 PK WND 05029/2307 SLP147 60000 T03110206 10317 20250 56026
PHJH - Lahaina/West Mau, Hawaii, USA
Distance from station: WNW 24mi, 39km
Updated: Sat, 21-Oct-2017 1:45pm HST
Partly Cloudy
Partly Cloudy
 Wind from NNE
Wind: NNE 17 mph , 28 km/h
Temperature: 82°F , 28°C
Heat Index: 86°F , 30°C
Dew Point: 70°F , 21°C
Humidity: 66%
Barometer: 29.98 inHg , 1015.2 hPa
Clouds: Partly Cloudy
Visibility: 15 miles , 24 km
Cloud details: Few Clouds 3000 ft
Partly Cloudy 4500 ft
2017/10/21 23:45 PHJH 212345Z 03015KT 15SM FEW030 SCT045 28/21 A2998
 
PHNY - Lanai City Airpo, Hawaii, USA
Distance from station: W 40mi, 65km
Updated: Sat, 21-Oct-2017 2:31pm HST
Mostly Cloudy
Mostly Cloudy
 Wind from NE
Wind: NE 20 mph , 31 km/h
Temperature: 77°F , 25°C
Dew Point: 68°F , 20°C
Humidity: 74%
Barometer: 30.00 inHg , 1015.9 hPa
Clouds: Mostly Cloudy
Visibility: 10 miles , 16 km
Cloud details: Few Clouds 900 ft
Mostly Cloudy 4000 ft
2017/10/22 00:31 PHNY 220031Z AUTO 04017KT 10SM FEW009 BKN040 25/20 A3000 RMK AO2
PHMK - Molokai, Hawaii, USA
Distance from station: WNW 55mi, 88km
Updated: Sat, 21-Oct-2017 1:54pm HST
Few Clouds
Few Clouds
 Wind from NNE
Wind: NNE 16 mph , 26 km/h, Gust: 28 mph , 44 km/h
Temperature: 82°F , 28°C
Heat Index: 86°F , 30°C
Dew Point: 70°F , 21°C
Humidity: 66%
Barometer: 29.98 inHg , 1015.2 hPa
Clouds: Few Clouds
Visibility: 10 miles , 16 km
Cloud details: Few Clouds 5000 ft
2017/10/21 23:54 PHMK 212354Z 03014G24KT 10SM FEW050 28/21 A2998 RMK AO2 PK WND 06029/2323 SLP153 T02780211 10294 20250 58023
 
PHKO - Kailua/Kona, Hawaii, USA
Distance from station: SSE 79mi, 128km
Updated: Sat, 21-Oct-2017 1:53pm HST
Partly Cloudy
Partly Cloudy
 Wind from W
Wind: W 10 mph , 17 km/h
Temperature: 84°F , 29°C
Heat Index: 86°F , 30°C
Dew Point: 66°F , 19°C
Humidity: 55%
Barometer: 29.92 inHg , 1013.2 hPa
Clouds: Partly Cloudy
Visibility: 10 miles , 16 km
Cloud details: Few Clouds 4500 ft
Partly Cloudy 6500 ft
2017/10/21 23:53 PHKO 212353Z 27009KT 10SM FEW045 SCT065 29/19 A2992 RMK AO2 SLP131 T02940189 10300 20261 58025
PHSF - Bradshaw Aaf/Haw, Hawaii, USA
Distance from station: SE 90mi, 145km
Updated: Sat, 21-Oct-2017 1:56pm HST
Clear
Clear
 Wind from WSW
Wind: WSW 7 mph , 11 km/h
Temperature: 75°F , 24°C
Dew Point: 48°F , 9°C
Humidity: 39%
Barometer: 30.27 inHg , 1025.1 hPa
Clouds: Clear
Visibility: 10 miles , 16 km
2017/10/21 23:56 PHSF 212356Z AUTO 24006KT 10SM CLR 24/09 A3027 RMK AO2 SLP132 WND DATA ESTMD T02360093 10247 20157 57016 $
 
PHNG - Kaneohe Mcas, Hawaii, USA
Distance from station: WNW 102mi, 164km
Updated: Sat, 21-Oct-2017 1:57pm HST
Mostly Cloudy
Mostly Cloudy
 Wind from ENE
Wind: ENE 10 mph , 17 km/h
Temperature: 82°F , 28°C
Heat Index: 86°F , 30°C
Dew Point: 72°F , 22°C
Humidity: 70%
Barometer: 29.96 inHg , 1014.6 hPa
Clouds: Mostly Cloudy
Visibility: 10 miles , 16 km
Cloud details: Partly Cloudy 2200 ft
Partly Cloudy 3000 ft
Mostly Cloudy 3700 ft
2017/10/21 23:57 PHNG 212357Z 06009KT 10SM SCT022 SCT030 BKN037 28/22 A2996 RMK AO2 SLP139 T02780217 10289 20267 58024 $
PHNL - Honolulu, Hawaii, USA
Distance from station: WNW 108mi, 174km
Updated: Sat, 21-Oct-2017 1:53pm HST
Partly Cloudy
Partly Cloudy
 Wind from NE
Wind: NE 14 mph , 22 km/h, Gust: 23 mph , 37 km/h
Temperature: 88°F , 31°C
Heat Index: 91°F , 33°C
Dew Point: 66°F , 19°C
Humidity: 49%
Barometer: 29.96 inHg , 1014.6 hPa
Clouds: Partly Cloudy
Visibility: 10 miles , 16 km
Cloud details: Few Clouds 2400 ft
Few Clouds 4900 ft
Partly Cloudy 6000 ft
Partly Cloudy 14000 ft
2017/10/21 23:53 PHNL 212353Z 05012G20KT 10SM FEW024 FEW049 SCT060 SCT140 31/19 A2996 RMK AO2 SLP145 VCSH N-E T03060189 10306 20261 58024
 
PHTO - Hilo, Hawaii, USA
Distance from station: SE 114mi, 183km
Updated: Sat, 21-Oct-2017 1:53pm HST
Clear
Clear
 Wind from NE
Wind: NE 8 mph , 13 km/h
Temperature: 82°F , 28°C
Heat Index: 86°F , 30°C
Dew Point: 70°F , 21°C
Humidity: 66%
Barometer: 29.97 inHg , 1014.9 hPa
Clouds: Clear
Visibility: 10 miles , 16 km
2017/10/21 23:53 PHTO 212353Z 04007KT 10SM CLR 28/21 A2997 RMK AO2 SLP146 60005 T02780206 10283 20217 56026
PHJR - Kalaeloa, Hawaii, USA
Distance from station: WNW 117mi, 189km
Updated: Sat, 21-Oct-2017 1:53pm HST
Mostly Cloudy
Mostly Cloudy
 Wind from ENE
Wind: ENE 13 mph , 20 km/h, Gust: 20 mph , 31 km/h
Temperature: 88°F , 31°C
Heat Index: 91°F , 33°C
Dew Point: 66°F , 19°C
Humidity: 49%
Barometer: 29.97 inHg , 1014.9 hPa
Clouds: Mostly Cloudy
Cloud details: Mostly Cloudy 4300 ft
2017/10/21 23:53 PHJR 212353Z 06011G17KT BKN043 31/19 A2997 RMK AO2 SLP154 T03060189 10311 20261 58024 $
 
PHHI - Wheeler Afb/Oahu, Hawaii, USA
Distance from station: WNW 120mi, 193km
Updated: Sat, 21-Oct-2017 1:58pm HST
Partly Cloudy
Partly Cloudy
 Wind from ENE
Wind: ENE 13 mph , 20 km/h, Gust: 18 mph , 30 km/h
Temperature: 81°F , 27°C
Heat Index: 84°F , 29°C
Dew Point: 68°F , 20°C
Humidity: 66%
Barometer: 29.98 inHg , 1015.2 hPa
Clouds: Partly Cloudy
Visibility: 10 miles , 16 km
Cloud details: Partly Cloudy 2800 ft
2017/10/21 23:58 PHHI 212358Z AUTO 06011G16KT 10SM SCT028 27/20 A2998 RMK AO2 SLP141 T02740199 10278 20236 57022 $
PHLI - Lihue/Kauai Is, Hawaii, USA
Distance from station: WNW 209mi, 336km
Updated: Sat, 21-Oct-2017 1:53pm HST
Partly Cloudy
Partly Cloudy
 Wind from NE
Wind: NE 14 mph , 22 km/h
Temperature: 84°F , 29°C
Heat Index: 88°F , 31°C
Dew Point: 70°F , 21°C
Humidity: 62%
Barometer: 30.01 inHg , 1016.3 hPa
Clouds: Partly Cloudy
Visibility: 10 miles , 16 km
Cloud details: Few Clouds 2400 ft
Partly Cloudy 4000 ft
2017/10/21 23:53 PHLI 212353Z 04012KT 10SM FEW024 SCT040 29/21 A3001 RMK AO2 SLP159 60000 T02890206 10300 20244 58021
 
PHBK - Barking Sands/Ka, Hawaii, USA
Distance from station: WNW 237mi, 382km
Updated: Sat, 21-Oct-2017 1:56pm HST
Mostly Cloudy
Mostly Cloudy
 Wind from WNW
Wind: WNW 8 mph , 13 km/h
Temperature: 84°F , 29°C
Heat Index: 89°F , 32°C
Dew Point: 72°F , 22°C
Humidity: 66%
Barometer: 29.96 inHg , 1014.6 hPa
Clouds: Mostly Cloudy
Visibility: 10 miles , 16 km
Cloud details: Mostly Cloudy 4400 ft
Mostly Cloudy 5500 ft
2017/10/21 23:56 PHBK 212356Z AUTO 29007KT 10SM BKN044 BKN055 29/22 A2996 RMK AO2 SLP148 60001 T02890217 10294 20244 58024